Time;durP1;ratioP1;P1;durP2;ratioP2;P2;SDS_P1;SDS_P2;PMS_P1;PMS_P2;Temp;Humidity;BMP_temperature;BMP_pressure;BME280_temperature;BME280_humidity;BME280_pressure;Samples;Min_cycle;Max_cycle;Signal;HPM_P1;HPM_P2
2021/01/16 06:00:26;;;;;;;6.40;3.80;;;-2.30;97.30;;;;;;5974957;23;20471;31
2021/01/16 06:02:52;;;;;;;7.73;4.20;;;-2.30;97.30;;;;;;4878115;29;20526;-73
2021/01/16 06:05:25;;;;;;;8.80;4.40;;;-2.30;97.30;;;;;;4879714;29;20474;-73
2021/01/16 06:07:55;;;;;;;7.40;4.30;;;-2.30;97.30;;;;;;4882679;29;20178;-72
2021/01/16 06:10:22;;;;;;;8.93;4.07;;;-2.30;97.30;;;;;;4881819;29;20428;-71
2021/01/16 06:12:50;;;;;;;5.97;3.97;;;-2.30;97.30;;;;;;4880190;29;20518;-72
2021/01/16 06:15:18;;;;;;;7.40;4.17;;;-2.30;97.30;;;;;;4880395;29;20517;-73
2021/01/16 06:17:47;;;;;;;8.70;4.30;;;-2.30;97.30;;;;;;4885198;29;20846;-74
2021/01/16 06:20:21;;;;;;;8.40;4.57;;;-2.30;97.30;;;;;;4890095;29;20422;-73
2021/01/16 06:22:50;;;;;;;6.70;4.20;;;-2.30;97.30;;;;;;4888237;29;20453;-74
2021/01/16 06:25:21;;;;;;;7.23;4.37;;;-2.30;97.30;;;;;;4890523;29;20490;-73
2021/01/16 06:27:48;;;;;;;7.10;4.10;;;-2.30;97.30;;;;;;4890165;29;20418;-73
2021/01/16 06:30:23;;;;;;;7.53;4.33;;;-2.30;97.30;;;;;;4890144;29;20420;-74
2021/01/16 06:32:53;;;;;;;8.60;4.00;;;-2.30;97.30;;;;;;4889579;29;20440;-74
2021/01/16 06:35:20;;;;;;;7.60;4.47;;;-2.30;97.30;;;;;;4888195;29;20456;-73
2021/01/16 06:37:49;;;;;;;10.90;5.83;;;-2.30;97.30;;;;;;4889843;29;20433;-73
2021/01/16 06:40:34;;;;;;;8.30;3.97;;;-2.30;97.30;;;;;;4886875;29;20425;-74
2021/01/16 06:43:01;;;;;;;6.80;4.50;;;-2.30;97.30;;;;;;4887776;29;20429;-75
2021/01/16 06:45:29;;;;;;;21.83;5.80;;;-2.20;97.30;;;;;;4890005;29;20461;-76
2021/01/16 06:47:58;;;;;;;6.20;4.10;;;-2.20;97.30;;;;;;4889253;29;20462;-74
2021/01/16 06:50:25;;;;;;;15.93;4.60;;;-2.20;97.30;;;;;;4890880;29;20421;-75
2021/01/16 06:52:51;;;;;;;7.77;3.83;;;-2.20;97.30;;;;;;4887214;29;20840;-73
2021/01/16 06:55:18;;;;;;;9.73;5.50;;;-2.10;97.30;;;;;;4896225;29;20441;-72
2021/01/16 06:57:44;;;;;;;7.47;4.23;;;-2.10;97.30;;;;;;4892214;29;20719;-74
2021/01/16 07:00:11;;;;;;;25.43;5.30;;;-2.20;97.30;;;;;;4879967;29;20434;-75
2021/01/16 07:02:38;;;;;;;6.13;4.80;;;-2.20;97.30;;;;;;4879988;29;20461;-74
2021/01/16 07:05:24;;;;;;;7.40;4.17;;;-2.20;97.30;;;;;;4879251;29;20980;-74
2021/01/16 07:07:51;;;;;;;9.70;4.60;;;-2.20;97.30;;;;;;4880309;29;20785;-74
2021/01/16 07:10:22;;;;;;;6.50;3.97;;;-2.20;97.30;;;;;;4878954;29;20457;-73
2021/01/16 07:12:49;;;;;;;6.00;3.80;;;-2.20;97.30;;;;;;4890405;29;20426;-75
2021/01/16 07:15:17;;;;;;;5.20;3.53;;;-2.20;97.30;;;;;;4887076;29;20434;-75
2021/01/16 07:17:44;;;;;;;5.43;4.57;;;-2.20;97.30;;;;;;4883934;29;20525;-75
2021/01/16 07:20:10;;;;;;;6.03;4.97;;;-2.20;97.30;;;;;;4903774;29;20450;-75
2021/01/16 07:22:40;;;;;;;4.70;3.73;;;-2.20;97.30;;;;;;4886797;29;20802;-75
2021/01/16 07:25:08;;;;;;;5.20;3.50;;;-2.20;97.30;;;;;;4863540;29;20491;-74
2021/01/16 07:27:36;;;;;;;6.93;3.33;;;-2.30;97.30;;;;;;4860734;29;20995;-75
2021/01/16 07:30:05;;;;;;;6.37;3.70;;;-2.30;97.30;;;;;;4860402;29;20427;-75
2021/01/16 07:32:48;;;;;;;5.30;3.13;;;-2.40;97.30;;;;;;4860353;29;20443;-75
2021/01/16 07:35:23;;;;;;;4.97;3.50;;;-2.40;97.30;;;;;;4860919;29;21001;-75
2021/01/16 07:37:51;;;;;;;5.77;2.87;;;-2.50;97.30;;;;;;4860160;29;20450;-75
2021/01/16 07:40:40;;;;;;;6.00;3.83;;;-2.50;97.30;;;;;;4876921;29;20987;-73
2021/01/16 07:43:49;;;;;;;25.10;5.20;;;-2.50;97.30;;;;;;4878427;29;20747;-73
2021/01/16 07:46:19;;;;;;;5.53;3.10;;;-2.40;97.30;;;;;;4872817;29;20482;-74
2021/01/16 07:48:57;;;;;;;4.03;2.97;;;-2.30;97.20;;;;;;4880074;29;20418;-74
2021/01/16 07:51:32;;;;;;;6.23;2.87;;;-2.10;96.80;;;;;;4878662;29;20481;-74
2021/01/16 07:54:11;;;;;;;6.40;3.00;;;-1.90;96.20;;;;;;4878316;29;20487;-74
2021/01/16 07:56:42;;;;;;;7.00;3.00;;;-1.80;95.90;;;;;;4880163;29;20792;-73
2021/01/16 07:59:24;;;;;;;5.40;3.40;;;-1.80;95.40;;;;;;4860896;29;20810;-75
2021/01/16 08:01:53;;;;;;;3.60;3.20;;;-1.70;95.10;;;;;;4859553;29;20467;-74
2021/01/16 08:04:26;;;;;;;6.33;4.10;;;-1.70;95.00;;;;;;4860240;29;20447;-74
2021/01/16 08:07:07;;;;;;;6.93;4.00;;;-1.70;95.10;;;;;;4859768;29;20424;-73
2021/01/16 08:09:53;;;;;;;8.67;4.17;;;-1.70;95.30;;;;;;4859792;29;20741;-74
2021/01/16 08:12:26;;;;;;;7.17;4.53;;;-1.80;96.00;;;;;;4861509;29;20925;-74
2021/01/16 08:14:53;;;;;;;11.63;4.57;;;-1.80;96.60;;;;;;4859460;29;20431;-74
2021/01/16 08:17:26;;;;;;;8.57;4.47;;;-1.80;96.70;;;;;;4859771;29;20522;-74
2021/01/16 08:20:00;;;;;;;7.93;4.50;;;-2.00;97.00;;;;;;4860180;29;20438;-75
2021/01/16 08:22:40;;;;;;;9.33;5.30;;;-2.20;97.30;;;;;;4859508;29;20480;-75
2021/01/16 08:25:14;;;;;;;8.23;5.43;;;-2.20;97.30;;;;;;4860574;29;20487;-74
2021/01/16 08:27:47;;;;;;;6.60;4.77;;;-2.20;97.30;;;;;;4859986;29;20484;-75
2021/01/16 08:30:15;;;;;;;6.97;4.57;;;-2.10;97.30;;;;;;4858956;29;20514;-75
2021/01/16 08:32:55;;;;;;;8.43;5.13;;;-2.10;97.30;;;;;;4860631;29;20463;-74
2021/01/16 08:35:25;;;;;;;8.70;5.00;;;-2.20;97.30;;;;;;4861318;29;20510;-74
2021/01/16 08:37:51;;;;;;;6.90;4.90;;;-2.10;97.30;;;;;;4859133;29;20972;-74
2021/01/16 08:40:32;;;;;;;11.63;5.40;;;-2.10;97.30;;;;;;4860468;29;20758;-74
2021/01/16 08:42:58;;;;;;;5.80;3.70;;;-2.10;97.30;;;;;;4860231;29;20423;-75
2021/01/16 08:45:24;;;;;;;9.00;5.10;;;-1.90;97.30;;;;;;4859059;29;20478;-74
2021/01/16 08:48:00;;;;;;;9.80;5.50;;;-1.80;97.30;;;;;;4860408;29;20657;-74
2021/01/16 08:50:34;;;;;;;12.87;6.00;;;-1.70;97.20;;;;;;4860840;29;20379;-74
2021/01/16 08:53:02;;;;;;;12.87;5.77;;;-1.60;96.90;;;;;;4859025;29;20427;-74
2021/01/16 08:55:29;;;;;;;9.10;5.40;;;-1.60;96.90;;;;;;4860403;29;20422;-74
2021/01/16 08:58:09;;;;;;;9.37;5.50;;;-1.70;97.20;;;;;;4859476;29;20424;-74
2021/01/16 09:00:36;;;;;;;8.10;5.43;;;-1.60;97.30;;;;;;4859188;29;20874;-75
2021/01/16 09:03:23;;;;;;;14.83;6.77;;;-1.60;97.30;;;;;;4860653;29;20513;-75
2021/01/16 09:06:00;;;;;;;9.20;5.30;;;-1.60;97.30;;;;;;4860037;29;20898;-74
2021/01/16 09:08:28;;;;;;;10.10;6.20;;;-1.70;97.30;;;;;;4860533;29;20403;-74
2021/01/16 09:11:14;;;;;;;10.77;6.07;;;-1.80;97.30;;;;;;4860322;29;20448;-74
2021/01/16 09:13:42;;;;;;;32.80;12.63;;;-1.90;97.30;;;;;;4860973;29;20450;-73
2021/01/16 09:16:34;;;;;;;44.53;13.57;;;-2.00;97.30;;;;;;4860189;29;20447;-74
2021/01/16 09:19:00;;;;;;;24.97;10.50;;;-1.90;97.30;;;;;;4859750;29;20462;-74
2021/01/16 09:21:27;;;;;;;22.43;8.00;;;-1.90;97.30;;;;;;4863153;29;20482;-75
2021/01/16 09:23:54;;;;;;;12.00;6.53;;;-1.90;97.30;;;;;;4864844;29;20178;-74
2021/01/16 09:26:21;;;;;;;9.17;6.20;;;-2.00;97.30;;;;;;4871396;29;20465;-74
2021/01/16 09:28:56;;;;;;;15.03;10.00;;;-2.00;97.30;;;;;;4880875;29;20409;-74
2021/01/16 09:31:22;;;;;;;8.53;5.87;;;-2.00;97.30;;;;;;4874065;29;20437;-74
2021/01/16 09:33:50;;;;;;;18.23;8.90;;;-1.90;97.30;;;;;;4874903;29;20782;-74
2021/01/16 09:36:38;;;;;;;15.83;8.90;;;-2.00;97.30;;;;;;4880570;29;20686;-74
2021/01/16 09:39:06;;;;;;;13.33;7.10;;;-1.90;97.30;;;;;;4880365;29;20418;-73
2021/01/16 09:41:35;;;;;;;11.63;6.50;;;-1.90;97.30;;;;;;4880518;29;20427;-74
2021/01/16 09:44:03;;;;;;;13.07;6.60;;;-1.80;97.30;;;;;;4881060;29;20478;-74
2021/01/16 09:46:34;;;;;;;12.17;7.00;;;-1.80;97.30;;;;;;4881690;29;20531;-74
2021/01/16 09:49:01;;;;;;;12.00;6.60;;;-1.90;97.30;;;;;;4882610;29;20433;-74
2021/01/16 09:51:31;;;;;;;13.57;6.47;;;-1.90;97.30;;;;;;4881318;29;20461;-75
2021/01/16 09:54:20;;;;;;;16.17;8.40;;;-1.80;97.30;;;;;;4880047;29;20803;-74
2021/01/16 09:56:49;;;;;;;14.27;7.27;;;-1.80;97.30;;;;;;4881165;29;20454;-75
2021/01/16 09:59:26;;;;;;;10.40;6.30;;;-1.70;97.30;;;;;;4881089;29;20423;-71
2021/01/16 10:02:11;;;;;;;15.37;7.90;;;-1.60;97.30;;;;;;4881195;29;20470;-73
2021/01/16 10:04:41;;;;;;;14.17;8.20;;;-1.60;97.30;;;;;;4881284;29;20473;-75
2021/01/16 10:07:09;;;;;;;18.40;7.77;;;-1.60;97.30;;;;;;4881263;29;20970;-75
2021/01/16 10:09:45;;;;;;;40.93;16.67;;;-1.70;97.30;;;;;;4880711;29;20547;-75
2021/01/16 10:12:33;;;;;;;14.33;7.17;;;-1.70;97.30;;;;;;4880266;29;20439;-73
2021/01/16 10:15:05;;;;;;;28.30;13.10;;;-1.70;97.30;;;;;;4882518;29;20422;-74
2021/01/16 10:17:34;;;;;;;13.97;7.07;;;-1.80;97.30;;;;;;4881712;29;20449;-73
2021/01/16 10:20:04;;;;;;;12.13;7.20;;;-1.70;97.30;;;;;;4880372;29;20869;-75
2021/01/16 10:22:30;;;;;;;12.70;7.00;;;-1.80;97.30;;;;;;4880566;29;20474;-75
2021/01/16 10:24:59;;;;;;;13.90;7.50;;;-1.70;97.30;;;;;;4880292;29;20480;-75
2021/01/16 10:27:56;;;;;;;14.00;6.80;;;-1.60;97.30;;;;;;4880689;29;20422;-74
2021/01/16 10:30:25;;;;;;;12.57;6.97;;;-1.60;97.30;;;;;;4880958;29;20409;-75
2021/01/16 10:32:52;;;;;;;12.73;7.30;;;-1.60;97.30;;;;;;4880037;29;20929;-75
2021/01/16 10:35:31;;;;;;;14.57;7.50;;;-1.60;97.30;;;;;;4881571;29;20414;-75
2021/01/16 10:37:59;;;;;;;15.17;7.83;;;-1.60;97.30;;;;;;4880894;29;20477;-74
2021/01/16 10:40:29;;;;;;;16.20;7.67;;;-1.60;97.30;;;;;;4881731;29;20446;-75
2021/01/16 10:42:57;;;;;;;13.70;7.30;;;-1.70;97.30;;;;;;4880067;29;20428;-75
2021/01/16 10:45:29;;;;;;;15.00;7.33;;;-1.70;97.30;;;;;;4880199;29;20466;-74
2021/01/16 10:47:56;;;;;;;16.13;7.90;;;-1.60;97.30;;;;;;4879011;29;20422;-74
2021/01/16 10:50:30;;;;;;;14.83;7.13;;;-1.50;97.30;;;;;;4879644;29;20836;-74
2021/01/16 10:53:04;;;;;;;14.33;7.50;;;-1.40;97.30;;;;;;4880171;29;20427;-73
2021/01/16 10:55:56;;;;;;;15.00;8.00;;;-1.40;97.30;;;;;;4880461;29;20457;-75
2021/01/16 10:58:25;;;;;;;12.73;7.40;;;-1.40;97.30;;;;;;4879819;29;20453;-74
2021/01/16 11:00:59;;;;;;;18.50;8.30;;;-1.50;97.30;;;;;;4879741;29;20469;-74
2021/01/16 11:03:32;;;;;;;19.47;8.10;;;-1.50;97.30;;;;;;4880520;29;20421;-74
2021/01/16 11:06:07;;;;;;;16.93;8.00;;;-1.40;97.30;;;;;;4879218;29;20458;-74
2021/01/16 11:08:34;;;;;;;15.37;8.50;;;-1.50;97.30;;;;;;4879462;29;20417;-75
2021/01/16 11:11:01;;;;;;;17.30;8.10;;;-1.60;97.30;;;;;;4879827;29;20435;-74
2021/01/16 11:13:29;;;;;;;16.33;9.00;;;-1.50;97.30;;;;;;4880674;29;20422;-74
2021/01/16 11:16:16;;;;;;;14.27;7.47;;;-1.50;97.30;;;;;;4878390;29;20958;-75
2021/01/16 11:18:43;;;;;;;15.67;8.70;;;-1.60;97.30;;;;;;4879439;29;20453;-74
2021/01/16 11:21:11;;;;;;;12.63;6.53;;;-1.60;97.30;;;;;;4878991;29;20502;-75
2021/01/16 11:23:45;;;;;;;14.70;7.77;;;-1.60;97.30;;;;;;4878680;29;20478;-75
2021/01/16 11:26:13;;;;;;;21.60;10.17;;;-1.50;97.30;;;;;;4880412;29;20544;-75
2021/01/16 11:29:14;;;;;;;15.67;7.63;;;-1.50;97.30;;;;;;4880289;29;20419;-73
2021/01/16 11:31:50;;;;;;;66.53;23.53;;;-1.60;97.30;;;;;;4878733;29;20432;-72
2021/01/16 11:34:18;;;;;;;20.57;9.13;;;-1.60;97.30;;;;;;4892834;29;20421;-75
2021/01/16 11:37:01;;;;;;;16.00;8.70;;;-1.50;97.30;;;;;;4895647;29;20509;-75
2021/01/16 11:39:50;;;;;;;21.33;10.03;;;-1.40;97.30;;;;;;4897515;29;20452;-74
2021/01/16 11:42:20;;;;;;;16.20;8.10;;;-1.30;97.30;;;;;;4890243;29;20871;-76
2021/01/16 11:44:49;;;;;;;17.30;9.87;;;-1.30;97.30;;;;;;4882674;29;20462;-76
2021/01/16 11:47:14;;;;;;;22.27;10.30;;;-1.40;97.30;;;;;;4886241;29;20425;-76
2021/01/16 11:49:43;;;;;;;20.70;8.47;;;-1.50;97.30;;;;;;4881401;29;20426;-75
2021/01/16 11:52:08;;;;;;;22.57;9.90;;;-1.50;97.30;;;;;;4890734;29;20210;-76
2021/01/16 11:54:34;;;;;;;21.00;9.60;;;-1.50;97.30;;;;;;4864748;29;20455;-75
2021/01/16 11:57:01;;;;;;;14.33;6.93;;;-1.40;97.30;;;;;;4878934;29;20273;-76
2021/01/16 11:59:27;;;;;;;17.60;9.10;;;-1.40;97.30;;;;;;4878143;29;20194;-74
2021/01/16 12:01:56;;;;;;;17.70;7.87;;;-1.50;97.30;;;;;;4878032;29;20462;-75
2021/01/16 12:04:22;;;;;;;18.20;10.57;;;-1.50;97.30;;;;;;4877974;29;20460;-75
2021/01/16 12:06:50;;;;;;;15.30;7.27;;;-1.40;97.30;;;;;;4877204;29;20445;-75
2021/01/16 12:09:16;;;;;;;19.83;9.27;;;-1.30;97.30;;;;;;4877942;29;20426;-75
2021/01/16 12:11:52;;;;;;;47.93;21.03;;;-1.20;97.30;;;;;;4875955;29;21021;-75
2021/01/16 12:14:18;;;;;;;21.60;8.93;;;-1.10;97.30;;;;;;4877660;29;20485;-74
2021/01/16 12:16:46;;;;;;;30.63;12.80;;;-0.90;97.30;;;;;;4878823;29;20788;-74
2021/01/16 12:19:15;;;;;;;15.00;7.40;;;-0.80;97.30;;;;;;4877713;29;20174;-75
2021/01/16 12:21:46;;;;;;;30.80;14.83;;;-0.80;97.30;;;;;;4876236;29;20438;-75
2021/01/16 12:24:13;;;;;;;23.83;11.60;;;-0.70;97.30;;;;;;4877477;29;20449;-75
2021/01/16 12:26:47;;;;;;;26.13;11.77;;;-0.60;97.30;;;;;;4879104;29;20422;-75
2021/01/16 12:29:23;;;;;;;13.57;7.30;;;-0.60;97.20;;;;;;4882870;29;20423;-76
2021/01/16 12:32:06;;;;;;;25.70;11.90;;;-0.80;96.80;;;;;;4879505;29;20426;-75
2021/01/16 12:34:33;;;;;;;16.23;7.97;;;-0.90;97.30;;;;;;4877935;29;20418;-75
2021/01/16 12:37:00;;;;;;;15.73;8.10;;;-1.00;97.30;;;;;;4878364;29;20422;-74
2021/01/16 12:39:26;;;;;;;33.93;16.30;;;-1.10;97.30;;;;;;4878002;29;20410;-76
2021/01/16 12:41:58;;;;;;;38.37;12.03;;;-1.00;97.30;;;;;;4878010;29;20449;-75
2021/01/16 12:44:23;;;;;;;25.33;12.47;;;-1.00;97.30;;;;;;4876388;29;20450;-76
2021/01/16 12:46:51;;;;;;;14.80;8.17;;;-0.90;97.30;;;;;;4877741;29;20430;-75
2021/01/16 12:49:19;;;;;;;16.17;7.80;;;-0.90;97.30;;;;;;4877549;29;20194;-75
2021/01/16 12:51:46;;;;;;;20.00;8.63;;;-0.90;97.30;;;;;;4876665;29;20829;-75
2021/01/16 12:54:21;;;;;;;36.73;16.60;;;-1.00;97.30;;;;;;4875929;29;20434;-75
2021/01/16 12:56:48;;;;;;;19.47;9.10;;;-1.00;97.30;;;;;;4880871;29;20829;-75
2021/01/16 12:59:18;;;;;;;13.00;7.83;;;-1.10;97.30;;;;;;4880023;29;20426;-74
2021/01/16 13:01:53;;;;;;;15.73;8.47;;;-1.00;97.30;;;;;;4880426;29;20478;-75
2021/01/16 13:04:20;;;;;;;20.60;10.03;;;-1.00;97.30;;;;;;4880981;29;21044;-74
2021/01/16 13:06:47;;;;;;;14.63;7.90;;;-0.90;97.30;;;;;;4880099;29;20427;-75
2021/01/16 13:09:15;;;;;;;16.50;8.83;;;-0.90;97.30;;;;;;4880675;29;20429;-74
2021/01/16 13:11:46;;;;;;;17.60;7.63;;;-0.80;97.30;;;;;;4881193;29;20802;-75
2021/01/16 13:14:12;;;;;;;13.87;7.13;;;-0.90;97.30;;;;;;4881844;29;20422;-75
2021/01/16 13:16:46;;;;;;;16.30;8.00;;;-0.90;97.30;;;;;;4880834;29;20426;-75
2021/01/16 13:19:16;;;;;;;8.80;5.60;;;-0.90;97.30;;;;;;4885845;29;20559;-75
2021/01/16 13:21:50;;;;;;;15.17;7.90;;;-0.80;97.20;;;;;;4899928;29;20812;-75
2021/01/16 13:24:25;;;;;;;11.70;6.30;;;-0.70;96.30;;;;;;4887163;29;20434;-76
2021/01/16 13:26:56;;;;;;;13.37;6.40;;;-0.80;95.80;;;;;;4881058;29;20434;-75
2021/01/16 13:29:22;;;;;;;13.70;7.30;;;-0.90;96.30;;;;;;4881258;29;20453;-75
2021/01/16 13:31:48;;;;;;;11.30;6.40;;;-0.80;96.70;;;;;;4880659;29;20442;-75
2021/01/16 13:34:15;;;;;;;13.23;6.80;;;-0.70;96.50;;;;;;4880980;29;20442;-75
2021/01/16 13:36:43;;;;;;;14.23;7.30;;;-0.70;96.40;;;;;;4881223;29;20571;-74
2021/01/16 13:39:14;;;;;;;13.37;6.97;;;-0.80;96.50;;;;;;4880628;29;20430;-74
2021/01/16 13:41:40;;;;;;;13.60;7.70;;;-0.70;97.00;;;;;;4880076;29;20983;-74
2021/01/16 13:44:20;;;;;;;12.63;6.70;;;-0.70;97.10;;;;;;4881237;29;20434;-74
2021/01/16 13:46:48;;;;;;;11.97;7.17;;;-0.70;96.90;;;;;;4880625;29;20426;-74
2021/01/16 13:49:28;;;;;;;16.30;6.27;;;-0.80;97.00;;;;;;4880371;29;20444;-74
2021/01/16 13:52:06;;;;;;;13.90;7.07;;;-0.70;97.30;;;;;;4880930;29;20473;-74
2021/01/16 13:54:35;;;;;;;10.87;6.50;;;-0.60;97.30;;;;;;4880408;29;20813;-74
2021/01/16 13:57:01;;;;;;;14.33;6.23;;;-0.60;97.00;;;;;;4880230;29;20426;-75
2021/01/16 13:59:28;;;;;;;14.77;6.73;;;-0.50;96.60;;;;;;4880823;29;20422;-75
2021/01/16 14:01:59;;;;;;;10.67;6.00;;;-0.40;96.00;;;;;;4880159;29;20875;-74
2021/01/16 14:04:25;;;;;;;10.90;5.73;;;-0.40;95.90;;;;;;4880083;29;20419;-75
2021/01/16 14:07:04;;;;;;;12.07;6.50;;;-0.40;95.80;;;;;;4881590;29;20562;-74
2021/01/16 14:09:30;;;;;;;9.77;5.90;;;-0.40;95.40;;;;;;4880519;29;20482;-75
2021/01/16 14:12:02;;;;;;;14.07;6.93;;;-0.50;95.00;;;;;;4879829;29;20446;-75
2021/01/16 14:14:37;;;;;;;16.03;6.97;;;-0.70;95.30;;;;;;4880202;29;20522;-75
2021/01/16 14:17:23;;;;;;;14.33;6.90;;;-0.70;96.00;;;;;;4880258;29;20414;-74
2021/01/16 14:20:01;;;;;;;14.77;7.23;;;-0.70;96.80;;;;;;4879887;29;20441;-75
2021/01/16 14:22:46;;;;;;;22.93;10.00;;;-0.70;97.30;;;;;;4880383;29;20457;-75
2021/01/16 14:25:13;;;;;;;43.63;17.43;;;-0.80;97.30;;;;;;4880047;29;20485;-74
2021/01/16 14:27:44;;;;;;;19.23;8.37;;;-0.80;97.30;;;;;;4879449;29;20836;-75
2021/01/16 14:30:12;;;;;;;15.10;7.70;;;-0.80;97.30;;;;;;4879572;29;20928;-75
2021/01/16 14:32:38;;;;;;;12.77;7.63;;;-1.00;97.30;;;;;;4879767;29;20650;-74
2021/01/16 14:35:16;;;;;;;15.30;8.03;;;-1.10;97.30;;;;;;4879692;29;20418;-75
2021/01/16 14:37:42;;;;;;;12.77;7.20;;;-1.10;97.30;;;;;;4879703;29;20265;-75
2021/01/16 14:40:08;;;;;;;15.43;8.43;;;-1.10;97.30;;;;;;4880394;29;20465;-75
2021/01/16 14:42:34;;;;;;;15.00;7.33;;;-1.20;97.30;;;;;;4879268;29;20209;-74
2021/01/16 14:45:00;;;;;;;14.07;7.43;;;-1.20;97.30;;;;;;4880486;29;20473;-75
2021/01/16 14:47:28;;;;;;;14.60;7.83;;;-1.20;97.30;;;;;;4880003;29;20519;-74
2021/01/16 14:50:09;;;;;;;15.20;7.93;;;-1.20;97.30;;;;;;4879217;29;20430;-75
2021/01/16 14:52:35;;;;;;;17.37;8.10;;;-1.20;97.30;;;;;;4879343;29;20442;-75
2021/01/16 14:55:09;;;;;;;14.93;7.50;;;-1.20;97.30;;;;;;4880049;29;20430;-75
2021/01/16 14:57:35;;;;;;;24.87;12.17;;;-1.20;97.30;;;;;;4879131;29;20422;-75
2021/01/16 15:00:03;;;;;;;17.37;7.60;;;-1.20;97.30;;;;;;4879276;29;20432;-75
2021/01/16 15:02:29;;;;;;;22.80;10.07;;;-1.30;97.30;;;;;;4879515;29;20548;-74
2021/01/16 15:05:07;;;;;;;24.70;11.43;;;-1.30;97.30;;;;;;4880509;29;20554;-74
2021/01/16 15:07:35;;;;;;;18.87;9.00;;;-1.30;97.30;;;;;;4880805;29;20276;-74
2021/01/16 15:10:01;;;;;;;17.83;7.87;;;-1.30;97.30;;;;;;4879651;29;20430;-74
2021/01/16 15:12:28;;;;;;;20.03;10.50;;;-1.30;97.30;;;;;;4879555;29;20979;-74
2021/01/16 15:14:53;;;;;;;12.77;7.87;;;-1.30;97.30;;;;;;4879557;29;20434;-74
2021/01/16 15:17:19;;;;;;;16.20;8.03;;;-1.30;97.30;;;;;;4880488;29;20426;-75
2021/01/16 15:19:46;;;;;;;20.77;7.80;;;-1.30;97.30;;;;;;4879254;29;20241;-73
2021/01/16 15:22:11;;;;;;;19.83;7.60;;;-1.30;97.30;;;;;;4878810;29;20213;-74
2021/01/16 15:24:38;;;;;;;22.37;11.03;;;-1.30;97.30;;;;;;4878891;29;20427;-75
2021/01/16 15:27:04;;;;;;;15.00;8.27;;;-1.30;97.30;;;;;;4879351;29;20418;-74
2021/01/16 15:29:30;;;;;;;17.80;8.77;;;-1.30;97.30;;;;;;4878396;29;20426;-75
2021/01/16 15:31:56;;;;;;;16.07;8.03;;;-1.30;97.30;;;;;;4879894;29;20601;-75
2021/01/16 15:34:39;;;;;;;16.50;7.73;;;-1.30;97.30;;;;;;4879221;29;20178;-74
2021/01/16 15:37:05;;;;;;;15.20;7.20;;;-1.30;97.30;;;;;;4878456;29;20419;-74
2021/01/16 15:39:47;;;;;;;23.93;12.20;;;-1.40;97.30;;;;;;4877966;29;20423;-75
2021/01/16 15:42:32;;;;;;;18.07;8.10;;;-1.40;97.30;;;;;;4878856;29;20796;-74
2021/01/16 15:45:03;;;;;;;16.70;8.03;;;-1.40;97.30;;;;;;4878284;29;20473;-74
2021/01/16 15:47:46;;;;;;;18.80;8.07;;;-1.40;97.30;;;;;;4880089;29;20770;-75
2021/01/16 15:50:14;;;;;;;16.93;8.13;;;-1.50;97.30;;;;;;4879161;29;20414;-74
2021/01/16 15:52:51;;;;;;;16.70;8.50;;;-1.50;97.30;;;;;;4878515;29;20422;-75
2021/01/16 15:55:17;;;;;;;18.57;8.77;;;-1.50;97.30;;;;;;4878604;29;20426;-74
2021/01/16 15:57:44;;;;;;;17.07;8.10;;;-1.50;97.30;;;;;;4872401;29;20423;-74
2021/01/16 16:00:27;;;;;;;19.97;8.73;;;-1.50;97.30;;;;;;4859647;29;20427;-74
2021/01/16 16:03:06;;;;;;;18.30;8.43;;;-1.50;97.30;;;;;;4859789;29;20454;-74
2021/01/16 16:05:34;;;;;;;14.50;8.57;;;-1.50;97.30;;;;;;4860357;29;20466;-74
2021/01/16 16:08:07;;;;;;;16.43;8.83;;;-1.50;97.30;;;;;;4859522;29;20778;-74
2021/01/16 16:10:33;;;;;;;13.83;7.90;;;-1.40;97.30;;;;;;4859686;29;20446;-74
2021/01/16 16:12:59;;;;;;;16.07;8.07;;;-1.40;97.30;;;;;;4860471;29;20416;-75
2021/01/16 16:15:26;;;;;;;12.23;7.00;;;-1.40;97.30;;;;;;4859723;29;20182;-75
2021/01/16 16:17:53;;;;;;;74.10;24.10;;;-1.40;97.30;;;;;;4860709;29;20415;-75
2021/01/16 16:20:19;;;;;;;14.00;7.80;;;-1.40;97.30;;;;;;4861364;29;20422;-74
2021/01/16 16:22:46;;;;;;;14.00;6.43;;;-1.40;97.30;;;;;;4860921;29;20451;-75
2021/01/16 16:25:12;;;;;;;13.03;7.50;;;-1.40;97.30;;;;;;4859353;29;20533;-75
2021/01/16 16:27:38;;;;;;;14.80;7.70;;;-1.40;97.30;;;;;;4860070;29;20414;-74
2021/01/16 16:30:07;;;;;;;11.93;7.00;;;-1.40;97.30;;;;;;4861932;29;20503;-74
2021/01/16 16:32:36;;;;;;;16.60;7.07;;;-1.50;97.30;;;;;;4865763;29;20547;-74
2021/01/16 16:35:03;;;;;;;10.97;5.80;;;-1.50;97.30;;;;;;4882055;29;20486;-74
2021/01/16 16:37:29;;;;;;;12.53;6.77;;;-1.40;97.30;;;;;;4881836;29;20434;-75
2021/01/16 16:39:55;;;;;;;9.67;5.83;;;-1.50;96.90;;;;;;4881051;29;20450;-75
2021/01/16 16:42:21;;;;;;;9.90;5.73;;;-1.40;96.60;;;;;;4882387;29;20197;-75
2021/01/16 16:44:48;;;;;;;17.03;6.90;;;-1.40;96.40;;;;;;4882220;29;20469;-73
2021/01/16 16:47:16;;;;;;;10.50;6.20;;;-1.50;96.20;;;;;;4884998;29;20222;-75
2021/01/16 16:49:42;;;;;;;12.90;5.97;;;-1.50;96.20;;;;;;4893848;29;20406;-75
2021/01/16 16:52:11;;;;;;;18.87;11.00;;;-1.50;96.30;;;;;;4888187;29;20445;-74
2021/01/16 16:54:38;;;;;;;23.53;12.43;;;-1.50;96.50;;;;;;4895744;29;20430;-75
2021/01/16 16:57:03;;;;;;;22.73;11.90;;;-1.50;96.60;;;;;;4889934;29;20418;-75
2021/01/16 16:59:29;;;;;;;17.10;9.10;;;-1.50;96.80;;;;;;4889864;29;20429;-75
2021/01/16 17:01:55;;;;;;;21.20;11.67;;;-1.50;96.90;;;;;;4889130;29;20217;-74
2021/01/16 17:04:21;;;;;;;17.07;9.93;;;-1.40;97.20;;;;;;4889720;29;20181;-75
2021/01/16 17:06:46;;;;;;;33.77;14.57;;;-1.40;97.30;;;;;;4889805;29;20293;-75
2021/01/16 17:09:12;;;;;;;19.73;11.70;;;-1.40;97.30;;;;;;4880682;29;20430;-74
2021/01/16 17:11:38;;;;;;;33.10;16.60;;;-1.40;97.30;;;;;;4880859;29;20194;-75
2021/01/16 17:14:04;;;;;;;23.63;12.43;;;-1.40;97.30;;;;;;4881407;29;20174;-75
2021/01/16 17:16:29;;;;;;;29.60;12.70;;;-1.40;97.30;;;;;;4881867;29;20421;-75
2021/01/16 17:18:56;;;;;;;24.60;10.57;;;-1.40;97.30;;;;;;4880608;29;20182;-74
2021/01/16 17:21:22;;;;;;;18.80;9.50;;;-1.40;97.30;;;;;;4880548;29;20934;-75
2021/01/16 17:23:47;;;;;;;23.63;11.63;;;-1.40;97.30;;;;;;4881891;29;20434;-75
2021/01/16 17:26:13;;;;;;;32.03;14.50;;;-1.40;97.30;;;;;;4888885;29;20217;-75
2021/01/16 17:28:39;;;;;;;25.03;11.50;;;-1.40;97.30;;;;;;4884590;29;20261;-75
2021/01/16 17:31:08;;;;;;;24.37;12.47;;;-1.40;97.30;;;;;;4881142;29;20241;-75
2021/01/16 17:33:36;;;;;;;29.00;12.40;;;-1.30;97.30;;;;;;4881704;29;20450;-75
2021/01/16 17:36:02;;;;;;;20.37;11.37;;;-1.30;97.30;;;;;;4881384;29;20430;-74
2021/01/16 17:38:28;;;;;;;18.47;9.67;;;-1.30;97.30;;;;;;4878918;29;20811;-75
2021/01/16 17:40:54;;;;;;;18.77;10.00;;;-1.40;97.30;;;;;;4880515;29;20446;-75
2021/01/16 17:43:19;;;;;;;16.97;9.20;;;-1.30;97.30;;;;;;4880822;29;20178;-75
2021/01/16 17:45:45;;;;;;;18.37;9.37;;;-1.30;97.30;;;;;;4880233;29;20221;-74
2021/01/16 17:48:12;;;;;;;24.60;10.53;;;-1.40;97.30;;;;;;4880037;29;20566;-75
2021/01/16 17:50:38;;;;;;;97.37;31.53;;;-1.40;97.30;;;;;;4880517;29;20220;-74
2021/01/16 17:53:04;;;;;;;207.23;58.03;;;-1.40;97.30;;;;;;4880310;29;20430;-75
2021/01/16 17:55:29;;;;;;;108.93;35.60;;;-1.40;97.30;;;;;;4884819;29;20268;-75
2021/01/16 17:57:55;;;;;;;46.93;16.40;;;-1.40;97.30;;;;;;4897309;29;20552;-74
2021/01/16 18:00:23;;;;;;;40.50;13.70;;;-1.40;97.30;;;;;;4879859;29;20570;-75
2021/01/16 18:02:48;;;;;;;78.97;24.90;;;-1.40;97.30;;;;;;4881312;29;20445;-75
2021/01/16 18:05:15;;;;;;;41.57;16.13;;;-1.40;97.30;;;;;;4881601;29;20486;-75
2021/01/16 18:07:47;;;;;;;33.37;11.67;;;-1.40;97.30;;;;;;4880071;29;20905;-75
2021/01/16 18:10:14;;;;;;;24.30;10.53;;;-1.40;97.30;;;;;;4888417;29;20432;-73
2021/01/16 18:12:40;;;;;;;22.20;10.20;;;-1.40;97.30;;;;;;4891286;29;20418;-74
2021/01/16 18:15:07;;;;;;;19.77;9.47;;;-1.40;97.30;;;;;;4890994;29;20486;-74
2021/01/16 18:17:32;;;;;;;21.13;9.60;;;-1.40;97.30;;;;;;4888521;29;20912;-75
2021/01/16 18:19:59;;;;;;;26.67;12.63;;;-1.40;97.30;;;;;;4892497;29;20422;-74
2021/01/16 18:22:24;;;;;;;22.67;12.20;;;-1.40;97.30;;;;;;4898853;29;20209;-75
2021/01/16 18:24:50;;;;;;;30.90;12.97;;;-1.40;97.30;;;;;;4898071;29;20483;-74
2021/01/16 18:27:16;;;;;;;25.57;14.17;;;-1.50;97.30;;;;;;4898908;29;20213;-74
2021/01/16 18:29:41;;;;;;;20.90;10.73;;;-1.50;97.30;;;;;;4898870;29;20640;-74
2021/01/16 18:32:11;;;;;;;24.17;11.93;;;-1.40;97.30;;;;;;4898333;29;20205;-74
2021/01/16 18:34:37;;;;;;;26.43;13.00;;;-1.50;97.30;;;;;;4899302;29;20647;-75
2021/01/16 18:37:02;;;;;;;25.03;12.33;;;-1.50;97.30;;;;;;4899060;29;20437;-76
2021/01/16 18:39:28;;;;;;;33.10;13.70;;;-1.60;97.30;;;;;;4898431;29;20770;-75
2021/01/16 18:41:54;;;;;;;29.40;13.50;;;-1.60;97.30;;;;;;4899752;29;20201;-75
2021/01/16 18:44:21;;;;;;;29.90;13.90;;;-1.70;97.30;;;;;;4899198;29;20185;-75
2021/01/16 18:46:48;;;;;;;28.70;13.30;;;-1.70;97.30;;;;;;4899417;29;20461;-76
2021/01/16 18:49:14;;;;;;;26.23;12.33;;;-1.70;97.30;;;;;;4898372;29;20440;-75
2021/01/16 18:51:40;;;;;;;26.93;13.23;;;-1.70;97.30;;;;;;4898032;29;20498;-75